Overview Statistics Trail Chart Weather Telemetry Raw packets
 

This is the latest recevied weather packets stored in our database for station/object HG8LXL-2. If no packets are shown the sender has not sent any weather packets the latest 10 day(s).

<< 26 27 28 29 30 31 32 >>
Time Temp. Humidity Pressure Rain* Wind** Luminosity Snow
1788243351 25.56° C 52% 1014.3 hPa - - - -
1788243051 25.56° C 52% 1014.4 hPa - - - -
1788242751 25.56° C 52% 1014.2 hPa - - - -
1788242454 25° C 54% 1014.2 hPa - - - -
1788242151 25° C 55% 1014.2 hPa - - - -
1788241851 24.44° C 57% 1014.1 hPa - - - -
1788241552 23.89° C 57% 1014.1 hPa - - - -
1788241251 23.89° C 58% 1014.1 hPa - - - -
1788240951 23.89° C 59% 1014 hPa - - - -
1788240652 22.78° C 62% 1014.1 hPa - - - -
1788240365 22.78° C 63% 1014 hPa - - - -
1788240051 22.78° C 64% 1014 hPa - - - -
1788239751 22.78° C 67% 1014 hPa - - - -
1788239454 22.78° C 68% 1014 hPa - - - -
1788239151 22.78° C 68% 1013.8 hPa - - - -
1788238851 22.78° C 67% 1013.7 hPa - - - -
1788238551 23.33° C 65% 1013.5 hPa - - - -
1788238259 23.33° C 65% 1013.5 hPa - - - -
1788237951 23.89° C 61% 1013.5 hPa - - - -
1788237668 23.33° C 61% 1013.4 hPa - - - -
1788237351 23.89° C 62% 1013.4 hPa - - - -
1788237051 23.33° C 63% 1013.4 hPa - - - -
1788236755 23.33° C 62% 1013.3 hPa - - - -
1788236451 23.33° C 63% 1013.1 hPa - - - -
1788236159 23.89° C 61% 1013.1 hPa - - - -

* Rain since midnight (hover to see other rain measurements)
** Current wind speed in m/s (hover to see current wind gust speed)